createdAt,value
2023-01-06T00:01:23.382Z,9.90
2023-01-06T00:03:52.688Z,10.00
2023-01-06T00:06:27.869Z,10.00
2023-01-06T00:08:57.309Z,9.90
2023-01-06T00:11:25.878Z,9.90
2023-01-06T00:13:53.146Z,9.90
2023-01-06T00:16:21.392Z,9.90
2023-01-06T00:18:48.725Z,9.90
2023-01-06T00:21:16.515Z,9.90
2023-01-06T00:23:43.789Z,9.90
2023-01-06T00:26:12.415Z,9.90
2023-01-06T00:28:39.716Z,9.90
2023-01-06T00:31:15.773Z,9.90
2023-01-06T00:33:43.512Z,9.90
2023-01-06T00:36:13.149Z,9.90
2023-01-06T00:38:41.391Z,9.90
2023-01-06T00:41:29.689Z,9.90
2023-01-06T00:43:58.030Z,9.90
2023-01-06T00:46:29.336Z,9.90
2023-01-06T00:49:05.772Z,10.00
2023-01-06T00:51:38.234Z,9.90
2023-01-06T00:54:10.538Z,9.90
2023-01-06T00:56:43.627Z,9.90
2023-01-06T00:59:13.279Z,9.90
2023-01-06T01:01:41.326Z,9.90
2023-01-06T01:04:09.368Z,9.90
2023-01-06T01:06:37.489Z,9.90
2023-01-06T01:09:06.991Z,9.90
2023-01-06T01:11:53.266Z,9.90
2023-01-06T01:14:21.194Z,9.90
2023-01-06T01:16:48.248Z,9.90
2023-01-06T01:19:16.270Z,9.90
2023-01-06T01:21:43.629Z,9.90
2023-01-06T01:24:11.316Z,9.90
2023-01-06T01:26:38.900Z,9.90
2023-01-06T01:29:06.573Z,9.90
2023-01-06T01:31:34.093Z,9.90
2023-01-06T01:34:02.113Z,9.90
2023-01-06T01:36:29.626Z,9.90
2023-01-06T01:38:58.310Z,9.90
2023-01-06T01:41:27.150Z,9.80
2023-01-06T01:43:55.926Z,9.90
2023-01-06T01:46:27.764Z,9.80
2023-01-06T01:49:04.042Z,9.80
2023-01-06T01:51:44.453Z,9.90
2023-01-06T01:54:23.667Z,9.80
2023-01-06T01:57:00.735Z,9.90
2023-01-06T01:59:32.572Z,9.90
2023-01-06T02:01:59.852Z,9.90
2023-01-06T02:04:28.395Z,10.00
2023-01-06T02:06:56.080Z,10.00
2023-01-06T02:10:03.507Z,10.00
2023-01-06T02:12:31.042Z,10.00
2023-01-06T02:14:58.090Z,10.00
2023-01-06T02:17:53.419Z,10.00
2023-01-06T02:20:23.478Z,10.00
2023-01-06T02:23:14.719Z,10.00
2023-01-06T02:26:07.655Z,10.00
2023-01-06T02:29:22.262Z,10.00
2023-01-06T02:31:52.261Z,10.00
2023-01-06T02:35:01.558Z,9.90
2023-01-06T02:37:50.327Z,9.90
2023-01-06T02:40:47.704Z,9.90
2023-01-06T02:43:28.552Z,9.90
2023-01-06T02:46:32.618Z,9.80
2023-01-06T02:49:36.946Z,9.80
2023-01-06T02:52:22.813Z,9.80
2023-01-06T02:55:07.890Z,9.80
2023-01-06T02:57:54.677Z,9.80
2023-01-06T03:00:51.704Z,9.80
2023-01-06T03:03:24.005Z,9.80
2023-01-06T03:05:57.473Z,9.80
2023-01-06T03:08:30.811Z,9.80
2023-01-06T03:11:00.176Z,9.80
2023-01-06T03:13:48.062Z,9.70
2023-01-06T03:16:16.287Z,9.70
2023-01-06T03:18:46.535Z,9.70
2023-01-06T03:21:27.642Z,9.70
2023-01-06T03:23:54.867Z,9.70
2023-01-06T03:26:21.979Z,9.70
2023-01-06T03:28:48.944Z,9.70
2023-01-06T03:31:35.361Z,9.70
2023-01-06T03:34:44.917Z,9.70
2023-01-06T03:37:38.728Z,9.80
2023-01-06T03:40:29.201Z,9.80
2023-01-06T03:43:13.860Z,9.80
2023-01-06T03:46:02.531Z,9.80
2023-01-06T03:49:03.391Z,9.80
2023-01-06T03:51:36.483Z,9.80
2023-01-06T03:54:12.264Z,9.80
2023-01-06T03:56:56.282Z,9.90
2023-01-06T03:59:28.725Z,9.90
2023-01-06T04:01:55.867Z,9.90
2023-01-06T04:04:22.948Z,9.80
2023-01-06T04:06:49.940Z,9.80
2023-01-06T04:09:17.167Z,9.80
2023-01-06T04:12:02.719Z,9.80
2023-01-06T04:14:29.742Z,9.80
2023-01-06T04:16:56.775Z,9.80
2023-01-06T04:19:23.879Z,9.80
2023-01-06T04:21:51.062Z,9.80
2023-01-06T04:24:18.078Z,9.80
2023-01-06T04:26:45.089Z,9.80
2023-01-06T04:29:12.184Z,9.80
2023-01-06T04:31:39.366Z,9.80
2023-01-06T04:34:07.402Z,9.80
2023-01-06T04:36:37.555Z,9.80
2023-01-06T04:39:04.744Z,8.90
2023-01-06T04:41:32.353Z,9.80
2023-01-06T04:44:00.211Z,9.80
2023-01-06T04:46:27.524Z,9.70
2023-01-06T04:48:54.611Z,9.80
2023-01-06T04:51:21.704Z,9.90
2023-01-06T04:53:50.223Z,9.80
2023-01-06T04:56:17.461Z,9.70
2023-01-06T04:58:44.566Z,9.80
2023-01-06T05:01:13.346Z,9.90
2023-01-06T05:03:41.850Z,9.80
2023-01-06T05:06:11.894Z,9.80
2023-01-06T05:08:43.202Z,9.70
2023-01-06T05:11:28.159Z,9.60
2023-01-06T05:13:56.328Z,9.60
2023-01-06T05:16:33.612Z,9.70
2023-01-06T05:19:02.164Z,9.70
2023-01-06T05:21:32.867Z,9.70
2023-01-06T05:24:01.021Z,9.80
2023-01-06T05:26:28.949Z,9.70
2023-01-06T05:28:56.506Z,9.80
2023-01-06T05:31:24.065Z,9.80
2023-01-06T05:33:51.381Z,9.80
2023-01-06T05:36:19.666Z,9.80
2023-01-06T05:38:53.895Z,9.70
2023-01-06T05:41:21.554Z,9.70
2023-01-06T05:43:48.835Z,9.70
2023-01-06T05:46:27.358Z,9.70
2023-01-06T05:48:54.469Z,9.80
2023-01-06T05:51:21.523Z,9.80
2023-01-06T05:53:49.118Z,9.70
2023-01-06T05:56:19.723Z,9.70
2023-01-06T05:58:50.195Z,9.70
2023-01-06T06:01:26.255Z,9.80
2023-01-06T06:03:54.622Z,9.70
2023-01-06T06:06:25.357Z,9.80
2023-01-06T06:08:53.682Z,9.80
2023-01-06T06:11:22.535Z,9.80
2023-01-06T06:13:55.963Z,9.80
2023-01-06T06:16:27.521Z,9.80
2023-01-06T06:18:57.855Z,9.80
2023-01-06T06:21:29.336Z,9.70
2023-01-06T06:23:58.163Z,9.70
2023-01-06T06:26:25.915Z,9.70
2023-01-06T06:28:53.214Z,9.80
2023-01-06T06:31:30.198Z,9.70
2023-01-06T06:34:00.855Z,9.80
2023-01-06T06:36:29.595Z,9.80
2023-01-06T06:38:57.445Z,9.70
2023-01-06T06:41:26.245Z,9.80
2023-01-06T06:43:53.742Z,9.80
2023-01-06T06:46:21.383Z,9.80
2023-01-06T06:48:50.280Z,9.80
2023-01-06T06:51:21.100Z,9.70
2023-01-06T06:53:48.888Z,9.70
2023-01-06T06:56:19.034Z,9.60
2023-01-06T06:58:47.137Z,9.60
2023-01-06T07:01:18.054Z,9.60
2023-01-06T07:03:45.746Z,9.50
2023-01-06T07:06:20.665Z,9.50
2023-01-06T07:08:48.971Z,9.70
2023-01-06T07:11:16.680Z,9.60
2023-01-06T07:13:43.766Z,9.60
2023-01-06T07:16:11.229Z,9.50
2023-01-06T07:18:38.775Z,9.50
2023-01-06T07:21:09.120Z,9.60
2023-01-06T07:23:36.060Z,9.70
2023-01-06T07:26:03.442Z,9.70
2023-01-06T07:28:32.961Z,9.70
2023-01-06T07:31:00.971Z,9.70
2023-01-06T07:33:29.322Z,9.80
2023-01-06T07:35:57.870Z,9.80
2023-01-06T07:38:25.572Z,9.80
2023-01-06T07:40:53.885Z,9.70
2023-01-06T07:43:20.968Z,9.80
2023-01-06T07:45:49.231Z,9.70
2023-01-06T07:48:17.330Z,9.70
2023-01-06T07:50:47.093Z,9.70
2023-01-06T07:53:17.336Z,9.80
2023-01-06T07:55:52.689Z,9.80
2023-01-06T07:58:20.296Z,9.80
2023-01-06T08:00:47.651Z,9.80
2023-01-06T08:03:18.126Z,9.80
2023-01-06T08:05:51.204Z,9.80
2023-01-06T08:08:18.954Z,9.80
2023-01-06T08:10:48.550Z,9.80
2023-01-06T08:13:20.675Z,9.80
2023-01-06T08:15:52.122Z,9.50
2023-01-06T08:18:19.807Z,9.90
2023-01-06T08:20:49.914Z,9.90
2023-01-06T08:26:15.314Z,9.90
2023-01-06T08:28:43.991Z,9.90
2023-01-06T08:31:19.144Z,10.00
2023-01-06T08:33:46.828Z,10.00
2023-01-06T08:36:17.439Z,10.00
2023-01-06T08:38:45.111Z,10.00
2023-01-06T08:41:12.696Z,10.10
2023-01-06T08:43:44.785Z,10.00
2023-01-06T08:46:19.206Z,10.10
2023-01-06T08:48:47.725Z,10.10
2023-01-06T08:51:18.865Z,10.10
2023-01-06T08:53:46.937Z,10.10
2023-01-06T08:56:29.949Z,10.10
2023-01-06T08:59:03.208Z,10.10
2023-01-06T09:01:35.221Z,10.10
2023-01-06T09:04:06.584Z,10.20
2023-01-06T09:06:33.936Z,10.20
2023-01-06T09:09:01.937Z,10.30
2023-01-06T09:11:28.916Z,10.30
2023-01-06T09:13:55.937Z,10.30
2023-01-06T09:16:23.257Z,10.40
2023-01-06T09:18:50.587Z,10.50
2023-01-06T09:21:21.430Z,10.50
2023-01-06T09:23:49.236Z,10.60
2023-01-06T09:26:18.402Z,10.60
2023-01-06T09:28:45.683Z,10.60
2023-01-06T09:31:12.932Z,10.60
2023-01-06T09:33:40.413Z,10.60
2023-01-06T09:36:07.621Z,10.60
2023-01-06T09:38:34.592Z,10.60
2023-01-06T09:41:25.751Z,10.60
2023-01-06T09:44:17.987Z,10.60
2023-01-06T09:46:48.818Z,10.70
2023-01-06T09:49:34.512Z,10.70
2023-01-06T09:52:17.157Z,10.70
2023-01-06T09:54:55.516Z,10.70
2023-01-06T09:57:52.473Z,10.80
2023-01-06T10:00:44.026Z,11.00
2023-01-06T10:03:27.134Z,11.00
2023-01-06T10:06:12.337Z,11.00
2023-01-06T10:08:58.337Z,11.00
2023-01-06T10:12:23.297Z,10.90
2023-01-06T10:15:02.162Z,10.80
2023-01-06T10:18:01.669Z,11.00
2023-01-06T10:20:51.155Z,11.00
2023-01-06T10:23:56.951Z,11.10
2023-01-06T10:26:33.389Z,11.10
2023-01-06T10:29:15.363Z,11.10
2023-01-06T10:31:49.221Z,11.20
2023-01-06T10:34:26.667Z,11.20
2023-01-06T10:37:27.247Z,11.20
2023-01-06T10:40:12.919Z,11.20
2023-01-06T10:43:07.162Z,11.40
2023-01-06T10:45:48.786Z,11.50
2023-01-06T10:48:21.314Z,11.60
2023-01-06T10:50:50.088Z,11.70
2023-01-06T10:53:17.775Z,11.70
2023-01-06T10:55:59.830Z,11.80
2023-01-06T10:58:45.027Z,11.80
2023-01-06T11:01:18.585Z,11.80
2023-01-06T11:03:47.313Z,11.90
2023-01-06T11:06:28.726Z,12.00
2023-01-06T11:08:56.538Z,11.90
2023-01-06T11:11:28.879Z,12.00
2023-01-06T11:14:03.615Z,11.90
2023-01-06T11:16:36.480Z,11.90
2023-01-06T11:19:08.328Z,11.80
2023-01-06T11:21:43.700Z,11.80
2023-01-06T11:24:24.488Z,11.80
2023-01-06T11:27:15.327Z,11.70
2023-01-06T11:29:42.433Z,11.60
2023-01-06T11:32:22.204Z,11.60
2023-01-06T11:35:00.495Z,11.60
2023-01-06T11:37:45.871Z,11.60
2023-01-06T11:40:25.456Z,11.60
2023-01-06T11:42:56.734Z,11.60
2023-01-06T11:45:39.141Z,11.60
2023-01-06T11:48:16.778Z,11.60
2023-01-06T11:50:56.507Z,11.60
2023-01-06T11:53:26.489Z,11.60
2023-01-06T11:56:07.796Z,11.70
2023-01-06T11:58:55.832Z,11.70
2023-01-06T12:01:47.493Z,11.60
2023-01-06T12:04:55.574Z,11.60
2023-01-06T12:07:43.423Z,11.50
2023-01-06T12:10:23.220Z,11.50
2023-01-06T12:12:50.689Z,11.50
2023-01-06T12:15:19.689Z,11.50
2023-01-06T12:18:19.794Z,11.50
2023-01-06T12:20:51.225Z,11.40
2023-01-06T12:23:34.775Z,11.40
2023-01-06T12:26:10.219Z,11.40
2023-01-06T12:28:41.143Z,11.40
2023-01-06T12:31:30.728Z,11.30
2023-01-06T12:34:29.559Z,11.30
2023-01-06T12:37:13.266Z,11.30
2023-01-06T12:40:16.967Z,11.30
2023-01-06T12:42:58.034Z,11.30
2023-01-06T12:46:28.065Z,11.40
2023-01-06T12:49:01.545Z,11.40
2023-01-06T12:51:54.543Z,11.40
2023-01-06T12:54:29.530Z,11.50
2023-01-06T12:57:11.478Z,11.50
2023-01-06T13:00:36.260Z,11.50
2023-01-06T13:03:15.816Z,11.50
2023-01-06T13:05:52.903Z,11.50
2023-01-06T13:08:45.343Z,11.10
2023-01-06T13:11:36.792Z,11.50
2023-01-06T13:14:22.727Z,11.50
2023-01-06T13:17:16.235Z,11.50
2023-01-06T13:19:52.976Z,11.50
2023-01-06T13:22:30.344Z,11.40
2023-01-06T13:25:54.870Z,11.50
2023-01-06T13:28:38.561Z,11.50
2023-01-06T13:31:23.343Z,11.40
2023-01-06T13:34:33.320Z,11.40
2023-01-06T13:37:51.645Z,11.40
2023-01-06T13:40:22.144Z,11.30
2023-01-06T13:43:06.677Z,11.30
2023-01-06T13:45:44.133Z,11.20
2023-01-06T13:48:20.150Z,11.20
2023-01-06T13:50:47.866Z,11.20
2023-01-06T13:53:24.122Z,11.10
2023-01-06T13:56:12.433Z,11.10
2023-01-06T13:58:45.479Z,11.10
2023-01-06T14:01:32.453Z,11.10
2023-01-06T14:04:35.938Z,11.10
2023-01-06T14:07:04.841Z,11.10
2023-01-06T14:09:38.182Z,11.00
2023-01-06T14:12:21.595Z,11.00
2023-01-06T14:15:20.133Z,11.00
2023-01-06T14:17:47.747Z,10.90
2023-01-06T14:20:47.044Z,10.90
2023-01-06T14:23:13.875Z,10.80
2023-01-06T14:25:43.159Z,10.70
2023-01-06T14:28:23.550Z,10.70
2023-01-06T14:30:52.423Z,10.70
2023-01-06T14:33:40.399Z,10.60
2023-01-06T14:36:16.327Z,10.50
2023-01-06T14:38:50.737Z,10.50
2023-01-06T14:41:26.865Z,10.40
2023-01-06T14:44:01.287Z,10.50
2023-01-06T14:46:39.476Z,10.50
2023-01-06T14:49:22.558Z,10.50
2023-01-06T14:51:53.148Z,10.50
2023-01-06T14:54:31.417Z,10.50
2023-01-06T14:57:00.884Z,10.40
2023-01-06T14:59:28.095Z,10.40
2023-01-06T15:02:03.615Z,10.40
2023-01-06T15:04:34.033Z,10.40
2023-01-06T15:07:19.846Z,10.40
2023-01-06T15:09:49.337Z,10.40
2023-01-06T15:12:31.899Z,10.40
2023-01-06T15:15:28.633Z,10.40
2023-01-06T15:17:58.483Z,10.40
2023-01-06T15:20:39.683Z,10.40
2023-01-06T15:23:07.043Z,10.40
2023-01-06T15:25:38.016Z,10.40
2023-01-06T15:28:05.020Z,10.30
2023-01-06T15:30:34.958Z,10.20
2023-01-06T15:33:03.932Z,10.20
2023-01-06T15:35:33.091Z,10.30
2023-01-06T15:38:22.135Z,10.30
2023-01-06T15:40:52.883Z,10.30
2023-01-06T15:43:24.025Z,10.30
2023-01-06T15:46:09.204Z,10.30
2023-01-06T15:48:41.793Z,10.30
2023-01-06T15:51:15.700Z,10.20
2023-01-06T15:53:43.904Z,9.90
2023-01-06T15:56:21.400Z,9.80
2023-01-06T15:58:52.112Z,9.80
2023-01-06T16:01:22.353Z,9.80
2023-01-06T16:03:55.681Z,9.90
2023-01-06T16:06:37.072Z,9.80
2023-01-06T16:09:30.743Z,9.80
2023-01-06T16:12:03.583Z,9.80
2023-01-06T16:14:43.906Z,9.80
2023-01-06T16:17:26.620Z,9.90
2023-01-06T16:20:07.977Z,9.90
2023-01-06T16:22:55.308Z,9.90
2023-01-06T16:25:34.235Z,9.90
2023-01-06T16:28:05.252Z,9.90
2023-01-06T16:30:36.713Z,9.90
2023-01-06T16:33:04.956Z,9.90
2023-01-06T16:35:34.900Z,9.90
2023-01-06T16:38:02.181Z,9.90
2023-01-06T16:40:30.254Z,9.90
2023-01-06T16:43:02.418Z,9.90
2023-01-06T16:45:43.589Z,9.90
2023-01-06T16:48:16.261Z,9.90
2023-01-06T16:50:50.638Z,9.90
2023-01-06T16:53:21.005Z,9.90
2023-01-06T16:55:54.546Z,9.90
2023-01-06T16:58:28.673Z,9.90
2023-01-06T17:00:59.132Z,9.90
2023-01-06T17:03:30.627Z,9.90
2023-01-06T17:05:57.713Z,9.90
2023-01-06T17:08:38.206Z,9.90
2023-01-06T17:11:22.323Z,9.90
2023-01-06T17:14:01.767Z,9.90
2023-01-06T17:16:35.485Z,9.90
2023-01-06T17:19:16.140Z,9.90
2023-01-06T17:21:43.251Z,9.90
2023-01-06T17:24:25.763Z,9.90
2023-01-06T17:26:58.930Z,9.90
2023-01-06T17:29:30.844Z,9.90
2023-01-06T17:32:01.638Z,9.90
2023-01-06T17:34:33.605Z,9.90
2023-01-06T17:37:13.088Z,9.90
2023-01-06T17:39:46.097Z,9.90
2023-01-06T17:42:12.913Z,9.90
2023-01-06T17:44:56.295Z,9.90
2023-01-06T17:47:23.345Z,9.80
2023-01-06T17:50:06.794Z,9.80
2023-01-06T17:52:40.061Z,9.80
2023-01-06T17:55:44.944Z,9.80
2023-01-06T17:58:23.394Z,9.90
2023-01-06T18:00:50.455Z,9.90
2023-01-06T18:03:26.627Z,9.80
2023-01-06T18:06:20.418Z,10.50
2023-01-06T18:08:49.383Z,9.80
2023-01-06T18:11:30.415Z,9.90
2023-01-06T18:14:23.789Z,9.80
2023-01-06T18:16:54.856Z,9.80
2023-01-06T18:19:34.600Z,9.80
2023-01-06T18:22:19.686Z,9.80
2023-01-06T18:24:49.147Z,9.80
2023-01-06T18:27:27.621Z,9.80
2023-01-06T18:30:11.012Z,9.80
2023-01-06T18:32:38.101Z,9.80
2023-01-06T18:35:25.603Z,9.80
2023-01-06T18:37:52.552Z,9.80
2023-01-06T18:40:24.452Z,9.80
2023-01-06T18:42:54.147Z,9.80
2023-01-06T18:45:27.274Z,9.80
2023-01-06T18:48:00.093Z,9.70
2023-01-06T18:50:37.239Z,9.80
2023-01-06T18:53:13.156Z,9.80
2023-01-06T18:55:50.966Z,9.80
2023-01-06T18:58:46.370Z,9.80
2023-01-06T19:01:50.829Z,9.70
2023-01-06T19:04:31.220Z,9.70
2023-01-06T19:07:24.735Z,9.70
2023-01-06T19:10:02.290Z,9.70
2023-01-06T19:12:31.048Z,9.70
2023-01-06T19:15:24.204Z,9.70
2023-01-06T19:17:57.740Z,9.70
2023-01-06T19:20:35.447Z,9.80
2023-01-06T19:23:24.463Z,9.70
2023-01-06T19:26:04.809Z,9.70
2023-01-06T19:28:35.020Z,9.70
2023-01-06T19:31:05.119Z,9.70
2023-01-06T19:33:41.825Z,9.60
2023-01-06T19:36:35.026Z,9.60
2023-01-06T19:39:19.792Z,9.60
2023-01-06T19:41:46.957Z,9.60
2023-01-06T19:44:15.401Z,9.60
2023-01-06T19:46:45.798Z,9.60
2023-01-06T19:49:22.064Z,9.50
2023-01-06T19:51:52.655Z,9.50
2023-01-06T19:54:37.408Z,9.50
2023-01-06T19:57:31.054Z,9.50
2023-01-06T20:00:00.738Z,9.50
2023-01-06T20:02:41.733Z,9.50
2023-01-06T20:05:09.372Z,9.40
2023-01-06T20:07:36.384Z,9.40
2023-01-06T20:10:03.863Z,9.30
2023-01-06T20:12:30.849Z,9.30
2023-01-06T20:14:57.890Z,9.30
2023-01-06T20:17:25.878Z,9.30
2023-01-06T20:19:52.986Z,9.20
2023-01-06T20:22:21.896Z,9.20
2023-01-06T20:24:49.234Z,9.20
2023-01-06T20:27:16.388Z,9.20
2023-01-06T20:29:43.549Z,9.30
2023-01-06T20:32:10.525Z,9.30
2023-01-06T20:34:37.685Z,9.20
2023-01-06T20:37:04.812Z,9.30
2023-01-06T20:39:31.795Z,9.30
2023-01-06T20:42:00.445Z,9.30
2023-01-06T20:44:27.628Z,9.20
2023-01-06T20:49:30.148Z,9.20
2023-01-06T20:52:00.060Z,9.20
2023-01-06T20:54:27.250Z,9.20
2023-01-06T20:56:54.779Z,9.20
2023-01-06T20:59:22.011Z,9.20
2023-01-06T21:01:49.464Z,9.20
2023-01-06T21:04:16.603Z,9.20
2023-01-06T21:06:44.521Z,9.20
2023-01-06T21:09:11.836Z,9.10
2023-01-06T21:11:38.841Z,9.00
2023-01-06T21:14:05.912Z,9.00
2023-01-06T21:16:32.999Z,9.00
2023-01-06T21:19:00.191Z,9.00
2023-01-06T21:21:27.239Z,9.00
2023-01-06T21:23:56.289Z,9.00
2023-01-06T21:26:23.396Z,9.00
2023-01-06T21:28:50.583Z,9.10
2023-01-06T21:31:17.743Z,9.10
2023-01-06T21:33:44.782Z,9.10
2023-01-06T21:36:11.792Z,9.10
2023-01-06T21:38:38.743Z,9.00
2023-01-06T21:41:24.496Z,9.00
2023-01-06T21:43:52.226Z,9.00
2023-01-06T21:46:19.408Z,9.00
2023-01-06T21:48:46.511Z,8.90
2023-01-06T21:51:13.539Z,8.90
2023-01-06T21:53:40.779Z,8.80
2023-01-06T21:56:08.868Z,8.60
2023-01-06T21:58:36.063Z,8.60
2023-01-06T22:01:03.105Z,8.50
2023-01-06T22:03:30.533Z,8.50
2023-01-06T22:05:58.285Z,8.50
2023-01-06T22:08:25.321Z,8.50
2023-01-06T22:10:52.435Z,8.50
2023-01-06T22:13:22.716Z,8.50
2023-01-06T22:15:52.549Z,8.60
2023-01-06T22:18:19.855Z,8.60
2023-01-06T22:20:47.035Z,8.60
2023-01-06T22:23:19.661Z,8.60
2023-01-06T22:25:46.682Z,8.70
2023-01-06T22:28:13.752Z,8.60
2023-01-06T22:30:40.760Z,8.70
2023-01-06T22:33:07.800Z,8.60
2023-01-06T22:35:34.822Z,8.70
2023-01-06T22:38:02.019Z,8.60
2023-01-06T22:40:28.967Z,8.60
2023-01-06T22:42:56.941Z,8.70
2023-01-06T22:45:24.024Z,8.60
2023-01-06T22:47:51.116Z,8.70
2023-01-06T22:50:19.465Z,8.60
2023-01-06T22:52:46.413Z,8.70
2023-01-06T22:55:13.415Z,8.70
2023-01-06T22:57:40.459Z,8.70
2023-01-06T23:00:15.073Z,8.60
2023-01-06T23:02:42.517Z,8.60
2023-01-06T23:05:10.948Z,8.60
2023-01-06T23:07:43.234Z,8.60
2023-01-06T23:10:20.934Z,8.60
2023-01-06T23:12:47.889Z,8.60
2023-01-06T23:15:14.851Z,8.60
2023-01-06T23:17:41.829Z,8.60
2023-01-06T23:20:09.706Z,8.60
2023-01-06T23:22:37.298Z,8.60
2023-01-06T23:25:04.746Z,8.60
2023-01-06T23:27:31.778Z,8.50
2023-01-06T23:29:59.481Z,8.50
2023-01-06T23:32:26.486Z,8.50
2023-01-06T23:34:53.444Z,8.50
2023-01-06T23:37:20.512Z,8.50
2023-01-06T23:39:48.018Z,8.50
2023-01-06T23:42:14.987Z,8.50
2023-01-06T23:44:42.033Z,8.50
2023-01-06T23:47:09.035Z,8.50
2023-01-06T23:49:36.019Z,8.50
2023-01-06T23:52:03.074Z,8.50
2023-01-06T23:54:30.068Z,8.50
2023-01-06T23:56:57.040Z,8.60
2023-01-06T23:59:24.066Z,8.50
